sensor_id;sensor_type;location;lat;lon;timestamp;P1;durP1;ratioP1;P2;durP2;ratioP2
579;SDS011;276;48.392;9.950;2023-05-29T00:01:25;7.97;;;7.17;;
579;SDS011;276;48.392;9.950;2023-05-29T00:03:51;6.27;;;5.63;;
579;SDS011;276;48.392;9.950;2023-05-29T00:06:17;6.43;;;5.80;;
579;SDS011;276;48.392;9.950;2023-05-29T00:08:46;7.17;;;5.90;;
579;SDS011;276;48.392;9.950;2023-05-29T00:11:12;10.23;;;6.40;;
579;SDS011;276;48.392;9.950;2023-05-29T00:13:40;6.80;;;6.20;;
579;SDS011;276;48.392;9.950;2023-05-29T00:16:06;7.20;;;6.50;;
579;SDS011;276;48.392;9.950;2023-05-29T00:18:35;6.70;;;6.20;;
579;SDS011;276;48.392;9.950;2023-05-29T00:21:01;6.60;;;5.77;;
579;SDS011;276;48.392;9.950;2023-05-29T00:23:29;6.13;;;5.50;;
579;SDS011;276;48.392;9.950;2023-05-29T00:25:57;7.63;;;6.83;;
579;SDS011;276;48.392;9.950;2023-05-29T00:28:23;7.97;;;5.83;;
579;SDS011;276;48.392;9.950;2023-05-29T00:30:51;5.47;;;4.97;;
579;SDS011;276;48.392;9.950;2023-05-29T00:33:16;6.17;;;5.50;;
579;SDS011;276;48.392;9.950;2023-05-29T00:35:43;8.17;;;6.70;;
579;SDS011;276;48.392;9.950;2023-05-29T00:38:11;6.63;;;5.30;;
579;SDS011;276;48.392;9.950;2023-05-29T00:40:37;5.87;;;5.27;;
579;SDS011;276;48.392;9.950;2023-05-29T00:43:04;8.00;;;6.17;;
579;SDS011;276;48.392;9.950;2023-05-29T00:45:32;6.30;;;5.70;;
579;SDS011;276;48.392;9.950;2023-05-29T00:48:03;7.23;;;6.63;;
579;SDS011;276;48.392;9.950;2023-05-29T00:50:30;8.27;;;6.07;;
579;SDS011;276;48.392;9.950;2023-05-29T00:52:57;7.50;;;6.13;;
579;SDS011;276;48.392;9.950;2023-05-29T00:55:25;7.30;;;6.60;;
579;SDS011;276;48.392;9.950;2023-05-29T00:57:51;5.87;;;5.27;;
579;SDS011;276;48.392;9.950;2023-05-29T01:00:17;6.30;;;5.67;;
579;SDS011;276;48.392;9.950;2023-05-29T01:02:43;8.27;;;5.77;;
579;SDS011;276;48.392;9.950;2023-05-29T01:05:13;5.60;;;5.10;;
579;SDS011;276;48.392;9.950;2023-05-29T01:07:42;6.30;;;4.60;;
579;SDS011;276;48.392;9.950;2023-05-29T01:10:10;7.10;;;5.83;;
579;SDS011;276;48.392;9.950;2023-05-29T01:12:47;5.70;;;5.17;;
579;SDS011;276;48.392;9.950;2023-05-29T01:15:33;6.33;;;5.73;;
579;SDS011;276;48.392;9.950;2023-05-29T01:20:27;7.00;;;6.07;;
579;SDS011;276;48.392;9.950;2023-05-29T01:26:07;6.90;;;5.50;;
579;SDS011;276;48.392;9.950;2023-05-29T01:28:47;9.80;;;6.37;;
579;SDS011;276;48.392;9.950;2023-05-29T01:31:14;7.47;;;6.67;;
579;SDS011;276;48.392;9.950;2023-05-29T01:36:20;5.23;;;4.73;;
579;SDS011;276;48.392;9.950;2023-05-29T01:38:47;6.20;;;5.60;;
579;SDS011;276;48.392;9.950;2023-05-29T01:41:14;5.70;;;5.30;;
579;SDS011;276;48.392;9.950;2023-05-29T01:43:42;6.57;;;5.07;;
579;SDS011;276;48.392;9.950;2023-05-29T01:46:09;5.70;;;4.90;;
579;SDS011;276;48.392;9.950;2023-05-29T01:48:35;5.63;;;5.13;;
579;SDS011;276;48.392;9.950;2023-05-29T01:51:04;7.73;;;4.87;;
579;SDS011;276;48.392;9.950;2023-05-29T01:53:32;5.87;;;5.23;;
579;SDS011;276;48.392;9.950;2023-05-29T01:55:57;6.70;;;6.00;;
579;SDS011;276;48.392;9.950;2023-05-29T01:58:26;7.07;;;5.63;;
579;SDS011;276;48.392;9.950;2023-05-29T02:00:53;6.53;;;5.23;;
579;SDS011;276;48.392;9.950;2023-05-29T02:03:22;6.23;;;5.70;;
579;SDS011;276;48.392;9.950;2023-05-29T02:05:48;5.10;;;4.57;;
579;SDS011;276;48.392;9.950;2023-05-29T02:08:17;6.77;;;5.20;;
579;SDS011;276;48.392;9.950;2023-05-29T02:10:44;5.90;;;5.10;;
579;SDS011;276;48.392;9.950;2023-05-29T02:13:10;6.23;;;5.57;;
579;SDS011;276;48.392;9.950;2023-05-29T02:15:36;6.83;;;5.90;;
579;SDS011;276;48.392;9.950;2023-05-29T02:18:04;7.33;;;6.40;;
579;SDS011;276;48.392;9.950;2023-05-29T02:20:29;6.10;;;5.60;;
579;SDS011;276;48.392;9.950;2023-05-29T02:22:55;6.57;;;5.97;;
579;SDS011;276;48.392;9.950;2023-05-29T02:25:20;6.13;;;5.53;;
579;SDS011;276;48.392;9.950;2023-05-29T02:27:48;6.87;;;6.17;;
579;SDS011;276;48.392;9.950;2023-05-29T02:30:16;4.93;;;4.53;;
579;SDS011;276;48.392;9.950;2023-05-29T02:32:46;6.83;;;5.00;;
579;SDS011;276;48.392;9.950;2023-05-29T02:35:12;8.80;;;6.40;;
579;SDS011;276;48.392;9.950;2023-05-29T02:37:46;5.70;;;5.20;;
579;SDS011;276;48.392;9.950;2023-05-29T02:40:11;7.40;;;6.40;;
579;SDS011;276;48.392;9.950;2023-05-29T02:42:39;5.53;;;5.03;;
579;SDS011;276;48.392;9.950;2023-05-29T02:45:05;5.87;;;5.37;;
579;SDS011;276;48.392;9.950;2023-05-29T02:47:31;6.23;;;5.63;;
579;SDS011;276;48.392;9.950;2023-05-29T02:49:56;7.13;;;5.00;;
579;SDS011;276;48.392;9.950;2023-05-29T02:52:22;5.33;;;4.83;;
579;SDS011;276;48.392;9.950;2023-05-29T02:54:50;5.57;;;4.60;;
579;SDS011;276;48.392;9.950;2023-05-29T02:57:15;5.43;;;4.83;;
579;SDS011;276;48.392;9.950;2023-05-29T02:59:41;6.30;;;5.40;;
579;SDS011;276;48.392;9.950;2023-05-29T03:02:11;6.43;;;5.80;;
579;SDS011;276;48.392;9.950;2023-05-29T03:04:39;6.33;;;4.37;;
579;SDS011;276;48.392;9.950;2023-05-29T03:07:07;5.83;;;5.17;;
579;SDS011;276;48.392;9.950;2023-05-29T03:09:34;5.53;;;5.03;;
579;SDS011;276;48.392;9.950;2023-05-29T03:12:00;7.00;;;5.57;;
579;SDS011;276;48.392;9.950;2023-05-29T03:14:26;5.03;;;4.60;;
579;SDS011;276;48.392;9.950;2023-05-29T03:16:52;5.67;;;4.83;;
579;SDS011;276;48.392;9.950;2023-05-29T03:19:18;6.43;;;4.97;;
579;SDS011;276;48.392;9.950;2023-05-29T03:21:46;5.20;;;4.63;;
579;SDS011;276;48.392;9.950;2023-05-29T03:24:12;7.00;;;5.87;;
579;SDS011;276;48.392;9.950;2023-05-29T03:26:43;6.87;;;4.70;;
579;SDS011;276;48.392;9.950;2023-05-29T03:29:09;6.20;;;5.10;;
579;SDS011;276;48.392;9.950;2023-05-29T03:31:34;5.53;;;5.00;;
579;SDS011;276;48.392;9.950;2023-05-29T03:34:00;5.40;;;5.00;;
579;SDS011;276;48.392;9.950;2023-05-29T03:36:25;8.87;;;5.33;;
579;SDS011;276;48.392;9.950;2023-05-29T03:38:53;5.00;;;4.57;;
579;SDS011;276;48.392;9.950;2023-05-29T03:41:19;6.00;;;5.30;;
579;SDS011;276;48.392;9.950;2023-05-29T03:43:45;6.63;;;5.00;;
579;SDS011;276;48.392;9.950;2023-05-29T03:46:11;5.67;;;4.97;;
579;SDS011;276;48.392;9.950;2023-05-29T03:48:36;7.33;;;5.17;;
579;SDS011;276;48.392;9.950;2023-05-29T03:51:04;6.20;;;5.60;;
579;SDS011;276;48.392;9.950;2023-05-29T03:53:32;6.47;;;4.87;;
579;SDS011;276;48.392;9.950;2023-05-29T03:56:00;6.13;;;5.40;;
579;SDS011;276;48.392;9.950;2023-05-29T03:58:28;6.43;;;5.57;;
579;SDS011;276;48.392;9.950;2023-05-29T04:00:56;6.13;;;5.30;;
579;SDS011;276;48.392;9.950;2023-05-29T04:03:22;6.63;;;5.97;;
579;SDS011;276;48.392;9.950;2023-05-29T04:05:48;5.60;;;4.60;;
579;SDS011;276;48.392;9.950;2023-05-29T04:08:16;5.63;;;4.70;;
579;SDS011;276;48.392;9.950;2023-05-29T04:10:44;5.50;;;4.77;;
579;SDS011;276;48.392;9.950;2023-05-29T04:13:12;7.63;;;4.83;;
579;SDS011;276;48.392;9.950;2023-05-29T04:15:37;5.40;;;5.00;;
579;SDS011;276;48.392;9.950;2023-05-29T04:18:06;6.17;;;5.00;;
579;SDS011;276;48.392;9.950;2023-05-29T04:20:33;7.07;;;4.80;;
579;SDS011;276;48.392;9.950;2023-05-29T04:23:01;5.93;;;5.43;;
579;SDS011;276;48.392;9.950;2023-05-29T04:25:27;6.97;;;5.63;;
579;SDS011;276;48.392;9.950;2023-05-29T04:27:55;6.57;;;5.47;;
579;SDS011;276;48.392;9.950;2023-05-29T04:30:20;5.90;;;5.27;;
579;SDS011;276;48.392;9.950;2023-05-29T04:32:51;6.57;;;5.87;;
579;SDS011;276;48.392;9.950;2023-05-29T04:35:19;6.03;;;5.43;;
579;SDS011;276;48.392;9.950;2023-05-29T04:37:44;7.50;;;5.60;;
579;SDS011;276;48.392;9.950;2023-05-29T04:40:10;5.73;;;5.23;;
579;SDS011;276;48.392;9.950;2023-05-29T04:42:42;5.83;;;5.23;;
579;SDS011;276;48.392;9.950;2023-05-29T04:45:09;5.53;;;5.03;;
579;SDS011;276;48.392;9.950;2023-05-29T04:47:38;8.53;;;5.97;;
579;SDS011;276;48.392;9.950;2023-05-29T04:50:12;6.93;;;5.97;;
579;SDS011;276;48.392;9.950;2023-05-29T04:52:39;6.60;;;5.90;;
579;SDS011;276;48.392;9.950;2023-05-29T04:55:04;6.90;;;5.90;;
579;SDS011;276;48.392;9.950;2023-05-29T04:57:31;7.83;;;5.67;;
579;SDS011;276;48.392;9.950;2023-05-29T04:59:57;6.67;;;6.17;;
579;SDS011;276;48.392;9.950;2023-05-29T05:02:23;6.90;;;6.00;;
579;SDS011;276;48.392;9.950;2023-05-29T05:04:48;5.93;;;5.43;;
579;SDS011;276;48.392;9.950;2023-05-29T05:07:15;5.00;;;4.60;;
579;SDS011;276;48.392;9.950;2023-05-29T05:09:41;5.37;;;4.87;;
579;SDS011;276;48.392;9.950;2023-05-29T05:12:07;6.87;;;5.47;;
579;SDS011;276;48.392;9.950;2023-05-29T05:14:33;5.87;;;5.10;;
579;SDS011;276;48.392;9.950;2023-05-29T05:16:59;9.53;;;4.90;;
579;SDS011;276;48.392;9.950;2023-05-29T05:19:24;5.77;;;5.33;;
579;SDS011;276;48.392;9.950;2023-05-29T05:21:52;7.80;;;5.60;;
579;SDS011;276;48.392;9.950;2023-05-29T05:24:18;6.00;;;5.50;;
579;SDS011;276;48.392;9.950;2023-05-29T05:26:43;9.17;;;6.10;;
579;SDS011;276;48.392;9.950;2023-05-29T05:29:09;6.03;;;4.80;;
579;SDS011;276;48.392;9.950;2023-05-29T05:31:35;5.43;;;5.03;;
579;SDS011;276;48.392;9.950;2023-05-29T05:34:02;6.50;;;5.03;;
579;SDS011;276;48.392;9.950;2023-05-29T05:36:31;5.13;;;4.63;;
579;SDS011;276;48.392;9.950;2023-05-29T05:38:57;5.43;;;4.93;;
579;SDS011;276;48.392;9.950;2023-05-29T05:41:23;4.93;;;4.43;;
579;SDS011;276;48.392;9.950;2023-05-29T05:43:49;5.67;;;5.10;;
579;SDS011;276;48.392;9.950;2023-05-29T05:46:17;6.37;;;5.53;;
579;SDS011;276;48.392;9.950;2023-05-29T05:48:43;7.37;;;4.87;;
579;SDS011;276;48.392;9.950;2023-05-29T05:51:08;5.17;;;4.67;;
579;SDS011;276;48.392;9.950;2023-05-29T05:53:36;5.57;;;5.07;;
579;SDS011;276;48.392;9.950;2023-05-29T05:56:04;9.90;;;5.87;;
579;SDS011;276;48.392;9.950;2023-05-29T05:58:32;6.60;;;4.80;;
579;SDS011;276;48.392;9.950;2023-05-29T06:01:03;6.17;;;5.57;;
579;SDS011;276;48.392;9.950;2023-05-29T06:03:29;7.40;;;5.23;;
579;SDS011;276;48.392;9.950;2023-05-29T06:05:58;7.17;;;5.47;;
579;SDS011;276;48.392;9.950;2023-05-29T06:08:26;5.47;;;4.97;;
579;SDS011;276;48.392;9.950;2023-05-29T06:10:51;7.53;;;5.47;;
579;SDS011;276;48.392;9.950;2023-05-29T06:13:17;7.00;;;6.30;;
579;SDS011;276;48.392;9.950;2023-05-29T06:15:45;7.00;;;6.17;;
579;SDS011;276;48.392;9.950;2023-05-29T06:18:13;5.47;;;5.00;;
579;SDS011;276;48.392;9.950;2023-05-29T06:20:39;6.30;;;5.60;;
579;SDS011;276;48.392;9.950;2023-05-29T06:23:04;8.50;;;6.87;;
579;SDS011;276;48.392;9.950;2023-05-29T06:25:33;9.60;;;8.70;;
579;SDS011;276;48.392;9.950;2023-05-29T06:27:59;9.80;;;8.90;;
579;SDS011;276;48.392;9.950;2023-05-29T06:30:25;10.47;;;8.20;;
579;SDS011;276;48.392;9.950;2023-05-29T06:32:53;7.53;;;6.93;;
579;SDS011;276;48.392;9.950;2023-05-29T06:35:21;7.60;;;6.90;;
579;SDS011;276;48.392;9.950;2023-05-29T06:37:49;7.53;;;5.97;;
579;SDS011;276;48.392;9.950;2023-05-29T06:40:17;6.53;;;6.00;;
579;SDS011;276;48.392;9.950;2023-05-29T06:42:45;15.23;;;13.73;;
579;SDS011;276;48.392;9.950;2023-05-29T06:45:13;13.27;;;11.87;;
579;SDS011;276;48.392;9.950;2023-05-29T06:47:42;18.93;;;14.63;;
579;SDS011;276;48.392;9.950;2023-05-29T06:50:10;10.33;;;8.20;;
579;SDS011;276;48.392;9.950;2023-05-29T06:52:38;8.10;;;6.93;;
579;SDS011;276;48.392;9.950;2023-05-29T06:55:03;7.87;;;7.17;;
579;SDS011;276;48.392;9.950;2023-05-29T06:57:29;6.77;;;6.17;;
579;SDS011;276;48.392;9.950;2023-05-29T06:59:55;6.57;;;5.97;;
579;SDS011;276;48.392;9.950;2023-05-29T07:02:21;6.43;;;5.70;;
579;SDS011;276;48.392;9.950;2023-05-29T07:04:49;6.53;;;5.67;;
579;SDS011;276;48.392;9.950;2023-05-29T07:07:17;7.87;;;7.00;;
579;SDS011;276;48.392;9.950;2023-05-29T07:09:42;6.03;;;5.43;;
579;SDS011;276;48.392;9.950;2023-05-29T07:12:10;8.00;;;7.20;;
579;SDS011;276;48.392;9.950;2023-05-29T07:14:38;11.67;;;10.50;;
579;SDS011;276;48.392;9.950;2023-05-29T07:17:04;10.17;;;9.27;;
579;SDS011;276;48.392;9.950;2023-05-29T07:19:30;10.30;;;7.87;;
579;SDS011;276;48.392;9.950;2023-05-29T07:21:57;6.73;;;6.00;;
579;SDS011;276;48.392;9.950;2023-05-29T07:24:23;6.70;;;6.00;;
579;SDS011;276;48.392;9.950;2023-05-29T07:26:51;7.60;;;6.90;;
579;SDS011;276;48.392;9.950;2023-05-29T07:29:17;10.20;;;9.30;;
579;SDS011;276;48.392;9.950;2023-05-29T07:31:45;11.70;;;10.33;;
579;SDS011;276;48.392;9.950;2023-05-29T07:34:11;10.90;;;9.10;;
579;SDS011;276;48.392;9.950;2023-05-29T07:36:49;8.20;;;7.50;;
579;SDS011;276;48.392;9.950;2023-05-29T07:39:28;8.83;;;7.60;;
579;SDS011;276;48.392;9.950;2023-05-29T07:41:53;8.97;;;7.90;;
579;SDS011;276;48.392;9.950;2023-05-29T07:44:19;8.73;;;6.80;;
579;SDS011;276;48.392;9.950;2023-05-29T07:46:45;8.73;;;7.93;;
579;SDS011;276;48.392;9.950;2023-05-29T07:49:10;9.77;;;8.57;;
579;SDS011;276;48.392;9.950;2023-05-29T07:51:36;7.60;;;6.90;;
579;SDS011;276;48.392;9.950;2023-05-29T07:54:02;8.00;;;7.10;;
579;SDS011;276;48.392;9.950;2023-05-29T07:56:28;8.50;;;7.00;;
579;SDS011;276;48.392;9.950;2023-05-29T07:58:56;9.17;;;6.20;;
579;SDS011;276;48.392;9.950;2023-05-29T08:01:22;10.93;;;6.37;;
579;SDS011;276;48.392;9.950;2023-05-29T08:03:51;12.17;;;9.70;;
579;SDS011;276;48.392;9.950;2023-05-29T08:06:20;11.60;;;9.33;;
579;SDS011;276;48.392;9.950;2023-05-29T08:08:48;8.40;;;7.70;;
579;SDS011;276;48.392;9.950;2023-05-29T08:11:13;7.00;;;6.40;;
579;SDS011;276;48.392;9.950;2023-05-29T08:13:41;7.83;;;7.03;;
579;SDS011;276;48.392;9.950;2023-05-29T08:16:07;7.60;;;6.80;;
579;SDS011;276;48.392;9.950;2023-05-29T08:18:37;7.83;;;6.80;;
579;SDS011;276;48.392;9.950;2023-05-29T08:21:05;8.80;;;6.90;;
579;SDS011;276;48.392;9.950;2023-05-29T08:23:31;7.87;;;7.07;;
579;SDS011;276;48.392;9.950;2023-05-29T08:25:59;8.67;;;7.87;;
579;SDS011;276;48.392;9.950;2023-05-29T08:28:27;7.80;;;6.87;;
579;SDS011;276;48.392;9.950;2023-05-29T08:30:53;6.07;;;5.57;;
579;SDS011;276;48.392;9.950;2023-05-29T08:33:21;7.27;;;6.27;;
579;SDS011;276;48.392;9.950;2023-05-29T08:35:46;10.10;;;6.80;;
579;SDS011;276;48.392;9.950;2023-05-29T08:38:12;7.47;;;6.77;;
579;SDS011;276;48.392;9.950;2023-05-29T08:40:40;8.00;;;6.30;;
579;SDS011;276;48.392;9.950;2023-05-29T08:43:13;26.63;;;10.23;;
579;SDS011;276;48.392;9.950;2023-05-29T08:45:44;19.70;;;9.03;;
579;SDS011;276;48.392;9.950;2023-05-29T08:48:11;8.27;;;6.87;;
579;SDS011;276;48.392;9.950;2023-05-29T08:50:43;8.23;;;7.27;;
579;SDS011;276;48.392;9.950;2023-05-29T08:53:13;6.23;;;5.60;;
579;SDS011;276;48.392;9.950;2023-05-29T08:55:40;8.07;;;6.07;;
579;SDS011;276;48.392;9.950;2023-05-29T08:58:08;6.10;;;5.70;;
579;SDS011;276;48.392;9.950;2023-05-29T09:00:36;6.87;;;6.27;;
579;SDS011;276;48.392;9.950;2023-05-29T09:03:05;7.43;;;6.73;;
579;SDS011;276;48.392;9.950;2023-05-29T09:05:32;7.37;;;6.27;;
579;SDS011;276;48.392;9.950;2023-05-29T09:07:58;7.10;;;6.00;;
579;SDS011;276;48.392;9.950;2023-05-29T09:10:27;6.70;;;6.00;;
579;SDS011;276;48.392;9.950;2023-05-29T09:12:52;6.80;;;6.10;;
579;SDS011;276;48.392;9.950;2023-05-29T09:15:21;8.47;;;7.67;;
579;SDS011;276;48.392;9.950;2023-05-29T09:20:17;7.20;;;6.50;;
579;SDS011;276;48.392;9.950;2023-05-29T09:22:53;7.40;;;6.80;;
579;SDS011;276;48.392;9.950;2023-05-29T09:25:28;7.53;;;6.37;;
579;SDS011;276;48.392;9.950;2023-05-29T09:33:01;4.70;;;4.30;;
579;SDS011;276;48.392;9.950;2023-05-29T09:35:40;5.00;;;4.53;;
579;SDS011;276;48.392;9.950;2023-05-29T09:38:13;6.10;;;5.07;;
579;SDS011;276;48.392;9.950;2023-05-29T09:40:45;5.73;;;5.13;;
579;SDS011;276;48.392;9.950;2023-05-29T09:43:12;5.73;;;5.13;;
579;SDS011;276;48.392;9.950;2023-05-29T09:45:41;5.10;;;4.60;;
579;SDS011;276;48.392;9.950;2023-05-29T09:48:12;4.97;;;4.57;;
579;SDS011;276;48.392;9.950;2023-05-29T09:50:37;9.17;;;6.70;;
579;SDS011;276;48.392;9.950;2023-05-29T09:53:21;6.60;;;4.70;;
579;SDS011;276;48.392;9.950;2023-05-29T09:55:51;7.20;;;6.00;;
579;SDS011;276;48.392;9.950;2023-05-29T09:58:19;6.27;;;5.67;;
579;SDS011;276;48.392;9.950;2023-05-29T10:00:48;7.37;;;6.43;;
579;SDS011;276;48.392;9.950;2023-05-29T10:03:15;7.83;;;6.30;;
579;SDS011;276;48.392;9.950;2023-05-29T10:05:49;5.30;;;4.77;;
579;SDS011;276;48.392;9.950;2023-05-29T10:08:19;5.77;;;5.20;;
579;SDS011;276;48.392;9.950;2023-05-29T10:10:56;5.17;;;4.67;;
579;SDS011;276;48.392;9.950;2023-05-29T10:13:35;6.20;;;5.20;;
579;SDS011;276;48.392;9.950;2023-05-29T10:16:04;6.73;;;6.17;;
579;SDS011;276;48.392;9.950;2023-05-29T10:18:37;5.97;;;5.33;;
579;SDS011;276;48.392;9.950;2023-05-29T10:21:06;4.80;;;4.27;;
579;SDS011;276;48.392;9.950;2023-05-29T10:23:32;5.67;;;5.07;;
579;SDS011;276;48.392;9.950;2023-05-29T10:26:04;4.70;;;4.27;;
579;SDS011;276;48.392;9.950;2023-05-29T10:28:37;5.70;;;4.70;;
579;SDS011;276;48.392;9.950;2023-05-29T10:31:09;5.63;;;5.13;;
579;SDS011;276;48.392;9.950;2023-05-29T10:36:34;6.20;;;5.33;;
579;SDS011;276;48.392;9.950;2023-05-29T10:39:04;5.03;;;4.53;;
579;SDS011;276;48.392;9.950;2023-05-29T10:41:29;5.30;;;4.80;;
579;SDS011;276;48.392;9.950;2023-05-29T10:43:59;8.33;;;7.57;;
579;SDS011;276;48.392;9.950;2023-05-29T10:49:19;7.00;;;4.50;;
579;SDS011;276;48.392;9.950;2023-05-29T10:51:45;4.30;;;3.90;;
579;SDS011;276;48.392;9.950;2023-05-29T10:54:12;4.10;;;3.60;;
579;SDS011;276;48.392;9.950;2023-05-29T10:56:44;4.93;;;4.43;;
579;SDS011;276;48.392;9.950;2023-05-29T10:59:16;5.60;;;4.50;;
579;SDS011;276;48.392;9.950;2023-05-29T11:01:43;4.80;;;4.40;;
579;SDS011;276;48.392;9.950;2023-05-29T11:06:47;5.60;;;3.80;;
579;SDS011;276;48.392;9.950;2023-05-29T11:09:34;5.43;;;4.30;;
579;SDS011;276;48.392;9.950;2023-05-29T11:14:55;6.10;;;5.50;;
579;SDS011;276;48.392;9.950;2023-05-29T11:17:32;4.33;;;3.57;;
579;SDS011;276;48.392;9.950;2023-05-29T11:20:00;6.43;;;4.63;;
579;SDS011;276;48.392;9.950;2023-05-29T11:25:13;8.33;;;4.20;;
579;SDS011;276;48.392;9.950;2023-05-29T11:27:40;4.17;;;3.40;;
579;SDS011;276;48.392;9.950;2023-05-29T11:30:09;4.40;;;4.00;;
579;SDS011;276;48.392;9.950;2023-05-29T11:32:36;7.07;;;3.80;;
579;SDS011;276;48.392;9.950;2023-05-29T11:35:09;4.43;;;4.10;;
579;SDS011;276;48.392;9.950;2023-05-29T11:37:37;4.20;;;3.80;;
579;SDS011;276;48.392;9.950;2023-05-29T11:40:05;4.33;;;3.60;;
579;SDS011;276;48.392;9.950;2023-05-29T11:42:34;4.00;;;3.40;;
579;SDS011;276;48.392;9.950;2023-05-29T11:45:19;4.47;;;4.07;;
579;SDS011;276;48.392;9.950;2023-05-29T11:50:21;4.20;;;3.77;;
579;SDS011;276;48.392;9.950;2023-05-29T11:52:50;3.93;;;3.40;;
579;SDS011;276;48.392;9.950;2023-05-29T11:55:19;6.10;;;3.90;;
579;SDS011;276;48.392;9.950;2023-05-29T11:57:48;3.80;;;3.13;;
579;SDS011;276;48.392;9.950;2023-05-29T12:00:15;4.33;;;3.90;;
579;SDS011;276;48.392;9.950;2023-05-29T12:02:43;3.70;;;3.40;;
579;SDS011;276;48.392;9.950;2023-05-29T12:05:12;3.77;;;3.47;;
579;SDS011;276;48.392;9.950;2023-05-29T12:07:50;3.90;;;3.60;;
579;SDS011;276;48.392;9.950;2023-05-29T12:10:17;5.20;;;4.20;;
579;SDS011;276;48.392;9.950;2023-05-29T12:15:21;3.40;;;3.07;;
579;SDS011;276;48.392;9.950;2023-05-29T12:17:49;3.80;;;3.40;;
579;SDS011;276;48.392;9.950;2023-05-29T12:20:16;3.20;;;3.00;;
579;SDS011;276;48.392;9.950;2023-05-29T12:22:43;4.50;;;3.40;;
579;SDS011;276;48.392;9.950;2023-05-29T12:25:10;3.97;;;3.60;;
579;SDS011;276;48.392;9.950;2023-05-29T12:27:38;4.50;;;3.70;;
579;SDS011;276;48.392;9.950;2023-05-29T12:30:10;3.80;;;3.50;;
579;SDS011;276;48.392;9.950;2023-05-29T12:32:40;7.10;;;3.60;;
579;SDS011;276;48.392;9.950;2023-05-29T12:35:13;6.10;;;3.50;;
579;SDS011;276;48.392;9.950;2023-05-29T12:40:32;3.73;;;3.10;;
579;SDS011;276;48.392;9.950;2023-05-29T12:43:07;3.33;;;3.03;;
579;SDS011;276;48.392;9.950;2023-05-29T12:45:36;4.40;;;3.87;;
579;SDS011;276;48.392;9.950;2023-05-29T12:48:02;5.13;;;4.10;;
579;SDS011;276;48.392;9.950;2023-05-29T12:50:31;4.47;;;3.67;;
579;SDS011;276;48.392;9.950;2023-05-29T12:55:27;4.60;;;2.90;;
579;SDS011;276;48.392;9.950;2023-05-29T12:57:58;5.20;;;3.03;;
579;SDS011;276;48.392;9.950;2023-05-29T13:00:24;4.13;;;3.27;;
579;SDS011;276;48.392;9.950;2023-05-29T13:02:52;4.10;;;3.70;;
579;SDS011;276;48.392;9.950;2023-05-29T13:05:18;3.60;;;3.30;;
579;SDS011;276;48.392;9.950;2023-05-29T13:07:51;4.03;;;3.67;;
579;SDS011;276;48.392;9.950;2023-05-29T13:10:17;3.77;;;3.47;;
579;SDS011;276;48.392;9.950;2023-05-29T13:12:43;4.57;;;4.03;;
579;SDS011;276;48.392;9.950;2023-05-29T13:15:14;5.60;;;3.73;;
579;SDS011;276;48.392;9.950;2023-05-29T13:17:40;3.80;;;3.17;;
579;SDS011;276;48.392;9.950;2023-05-29T13:20:10;5.20;;;3.97;;
579;SDS011;276;48.392;9.950;2023-05-29T13:22:37;4.07;;;3.67;;
579;SDS011;276;48.392;9.950;2023-05-29T13:25:03;4.20;;;3.77;;
579;SDS011;276;48.392;9.950;2023-05-29T13:27:31;4.20;;;3.77;;
579;SDS011;276;48.392;9.950;2023-05-29T13:30:00;6.87;;;4.70;;
579;SDS011;276;48.392;9.950;2023-05-29T13:32:26;4.30;;;3.90;;
579;SDS011;276;48.392;9.950;2023-05-29T13:34:54;4.50;;;4.10;;
579;SDS011;276;48.392;9.950;2023-05-29T13:37:20;4.43;;;3.80;;
579;SDS011;276;48.392;9.950;2023-05-29T13:39:50;4.50;;;4.10;;
579;SDS011;276;48.392;9.950;2023-05-29T13:42:17;4.63;;;3.80;;
579;SDS011;276;48.392;9.950;2023-05-29T13:44:45;4.30;;;3.90;;
579;SDS011;276;48.392;9.950;2023-05-29T13:47:16;5.57;;;3.83;;
579;SDS011;276;48.392;9.950;2023-05-29T13:49:44;3.90;;;3.50;;
579;SDS011;276;48.392;9.950;2023-05-29T13:52:10;5.10;;;3.87;;
579;SDS011;276;48.392;9.950;2023-05-29T13:54:36;3.90;;;3.60;;
579;SDS011;276;48.392;9.950;2023-05-29T13:57:05;5.30;;;4.80;;
579;SDS011;276;48.392;9.950;2023-05-29T13:59:34;5.40;;;4.83;;
579;SDS011;276;48.392;9.950;2023-05-29T14:02:02;4.07;;;3.33;;
579;SDS011;276;48.392;9.950;2023-05-29T14:04:29;4.53;;;3.87;;
579;SDS011;276;48.392;9.950;2023-05-29T14:06:55;4.10;;;3.70;;
579;SDS011;276;48.392;9.950;2023-05-29T14:09:22;4.97;;;4.57;;
579;SDS011;276;48.392;9.950;2023-05-29T14:11:58;4.37;;;3.97;;
579;SDS011;276;48.392;9.950;2023-05-29T14:14:24;5.23;;;4.70;;
579;SDS011;276;48.392;9.950;2023-05-29T14:16:53;4.90;;;4.23;;
579;SDS011;276;48.392;9.950;2023-05-29T14:19:19;6.20;;;4.30;;
579;SDS011;276;48.392;9.950;2023-05-29T14:21:45;6.80;;;4.37;;
579;SDS011;276;48.392;9.950;2023-05-29T14:24:11;4.87;;;4.37;;
579;SDS011;276;48.392;9.950;2023-05-29T14:26:38;4.90;;;4.40;;
579;SDS011;276;48.392;9.950;2023-05-29T14:29:03;4.30;;;4.00;;
579;SDS011;276;48.392;9.950;2023-05-29T14:31:29;6.53;;;3.70;;
579;SDS011;276;48.392;9.950;2023-05-29T14:33:55;4.13;;;3.80;;
579;SDS011;276;48.392;9.950;2023-05-29T14:36:21;4.87;;;3.87;;
579;SDS011;276;48.392;9.950;2023-05-29T14:38:47;4.27;;;3.87;;
579;SDS011;276;48.392;9.950;2023-05-29T14:41:15;4.53;;;4.13;;
579;SDS011;276;48.392;9.950;2023-05-29T14:43:43;4.83;;;4.27;;
579;SDS011;276;48.392;9.950;2023-05-29T14:46:09;4.33;;;3.93;;
579;SDS011;276;48.392;9.950;2023-05-29T14:48:35;5.97;;;4.37;;
579;SDS011;276;48.392;9.950;2023-05-29T14:51:01;4.60;;;4.20;;
579;SDS011;276;48.392;9.950;2023-05-29T14:53:27;5.13;;;3.80;;
579;SDS011;276;48.392;9.950;2023-05-29T14:55:55;6.77;;;4.90;;
579;SDS011;276;48.392;9.950;2023-05-29T14:58:21;6.23;;;4.83;;
579;SDS011;276;48.392;9.950;2023-05-29T15:00:46;5.67;;;5.17;;
579;SDS011;276;48.392;9.950;2023-05-29T15:03:12;5.67;;;5.17;;
579;SDS011;276;48.392;9.950;2023-05-29T15:05:40;5.27;;;4.77;;
579;SDS011;276;48.392;9.950;2023-05-29T15:08:05;4.93;;;4.20;;
579;SDS011;276;48.392;9.950;2023-05-29T15:10:33;4.97;;;4.53;;
579;SDS011;276;48.392;9.950;2023-05-29T15:12:59;5.97;;;4.20;;
579;SDS011;276;48.392;9.950;2023-05-29T15:15:31;4.67;;;3.80;;
579;SDS011;276;48.392;9.950;2023-05-29T15:17:59;5.73;;;4.50;;
579;SDS011;276;48.392;9.950;2023-05-29T15:20:26;4.67;;;4.27;;
579;SDS011;276;48.392;9.950;2023-05-29T15:22:52;4.90;;;4.50;;
579;SDS011;276;48.392;9.950;2023-05-29T15:25:20;4.60;;;3.90;;
579;SDS011;276;48.392;9.950;2023-05-29T15:27:46;4.47;;;4.07;;
579;SDS011;276;48.392;9.950;2023-05-29T15:32:40;5.53;;;3.83;;
579;SDS011;276;48.392;9.950;2023-05-29T15:35:07;6.23;;;3.83;;
579;SDS011;276;48.392;9.950;2023-05-29T15:37:39;6.17;;;3.80;;
579;SDS011;276;48.392;9.950;2023-05-29T15:40:10;4.53;;;4.13;;
579;SDS011;276;48.392;9.950;2023-05-29T15:42:36;3.73;;;3.37;;
579;SDS011;276;48.392;9.950;2023-05-29T15:45:02;5.17;;;3.73;;
579;SDS011;276;48.392;9.950;2023-05-29T15:47:30;5.00;;;4.50;;
579;SDS011;276;48.392;9.950;2023-05-29T15:49:58;4.60;;;4.20;;
579;SDS011;276;48.392;9.950;2023-05-29T15:52:28;4.63;;;4.20;;
579;SDS011;276;48.392;9.950;2023-05-29T15:54:54;5.13;;;4.60;;
579;SDS011;276;48.392;9.950;2023-05-29T15:57:20;5.60;;;3.50;;
579;SDS011;276;48.392;9.950;2023-05-29T15:59:48;4.20;;;3.80;;
579;SDS011;276;48.392;9.950;2023-05-29T16:02:14;5.27;;;3.77;;
579;SDS011;276;48.392;9.950;2023-05-29T16:04:39;4.40;;;4.00;;
579;SDS011;276;48.392;9.950;2023-05-29T16:07:05;6.10;;;3.73;;
579;SDS011;276;48.392;9.950;2023-05-29T16:09:33;4.83;;;4.43;;
579;SDS011;276;48.392;9.950;2023-05-29T16:11:59;4.73;;;4.33;;
579;SDS011;276;48.392;9.950;2023-05-29T16:14:24;7.20;;;3.70;;
579;SDS011;276;48.392;9.950;2023-05-29T16:16:52;3.90;;;3.60;;
579;SDS011;276;48.392;9.950;2023-05-29T16:19:20;4.43;;;4.03;;
579;SDS011;276;48.392;9.950;2023-05-29T16:21:48;6.00;;;3.70;;
579;SDS011;276;48.392;9.950;2023-05-29T16:24:16;4.70;;;4.20;;
579;SDS011;276;48.392;9.950;2023-05-29T16:26:42;5.17;;;4.70;;
579;SDS011;276;48.392;9.950;2023-05-29T16:29:08;4.50;;;4.13;;
579;SDS011;276;48.392;9.950;2023-05-29T16:31:34;4.20;;;3.47;;